Time;durP1;ratioP1;P1;durP2;ratioP2;P2;SDS_P1;SDS_P2;PMS_P1;PMS_P2;Temp;Humidity;BMP_temperature;BMP_pressure;BME280_temperature;BME280_humidity;BME280_pressure;Samples;Min_cycle;Max_cycle;Signal;HPM_P1;HPM_P2
2021/01/11 00:00:34;;;;;;;26.77;14.67;;;8.00;43.30;;;;;;5059661;28;20953;-85
2021/01/11 00:03:00;;;;;;;24.27;12.77;;;8.20;42.00;;;;;;5061555;28;20472;-85
2021/01/11 00:05:27;;;;;;;28.00;16.67;;;8.00;43.00;;;;;;5060599;28;20435;-85
2021/01/11 00:07:53;;;;;;;26.23;14.53;;;7.90;41.80;;;;;;5061005;28;20440;-85
2021/01/11 00:10:20;;;;;;;25.40;14.93;;;7.90;42.30;;;;;;5062768;28;20480;-85
2021/01/11 00:12:48;;;;;;;30.60;16.83;;;7.70;41.70;;;;;;5061935;28;20530;-85
2021/01/11 00:15:15;;;;;;;22.87;13.93;;;7.00;40.90;;;;;;5064425;28;20985;-85
2021/01/11 00:17:42;;;;;;;27.13;14.20;;;6.50;43.40;;;;;;5070195;28;20490;-87
2021/01/11 00:20:10;;;;;;;30.23;15.80;;;6.50;43.20;;;;;;5077694;28;20444;-86
2021/01/11 00:22:36;;;;;;;28.27;14.00;;;6.80;44.00;;;;;;5077498;28;20453;-85
2021/01/11 00:25:04;;;;;;;27.60;14.43;;;6.60;42.80;;;;;;5073997;28;20434;-85
2021/01/11 00:27:31;;;;;;;24.37;13.70;;;7.10;43.80;;;;;;5065047;28;20779;-85
2021/01/11 00:29:58;;;;;;;32.30;17.23;;;7.30;42.30;;;;;;5077866;28;20429;-86
2021/01/11 00:32:25;;;;;;;28.97;17.60;;;7.30;41.80;;;;;;5077190;28;20455;-85
2021/01/11 00:34:51;;;;;;;32.17;17.80;;;7.30;41.30;;;;;;5074796;28;20466;-84
2021/01/11 00:37:18;;;;;;;31.23;16.80;;;6.50;38.20;;;;;;5074128;28;20813;-85
2021/01/11 00:39:44;;;;;;;31.17;14.70;;;6.00;41.80;;;;;;5061245;28;20451;-85
2021/01/11 00:42:11;;;;;;;31.40;17.90;;;6.60;44.30;;;;;;5058537;28;20462;-85
2021/01/11 00:44:37;;;;;;;29.80;17.93;;;6.10;39.20;;;;;;5058274;28;20448;-86
2021/01/11 00:47:05;;;;;;;40.07;20.60;;;5.40;40.70;;;;;;5056833;28;20432;-85
2021/01/11 00:49:32;;;;;;;24.90;14.43;;;5.30;42.70;;;;;;5055478;28;20440;-85
2021/01/11 00:51:58;;;;;;;30.07;17.47;;;5.50;44.70;;;;;;5054924;28;20558;-85
2021/01/11 00:54:25;;;;;;;28.23;16.33;;;5.90;44.40;;;;;;5054347;28;20444;-85
2021/01/11 00:56:51;;;;;;;28.70;16.67;;;6.30;43.70;;;;;;5053023;28;20440;-85
2021/01/11 00:59:18;;;;;;;27.60;16.03;;;6.00;41.10;;;;;;5053735;28;20498;-85
2021/01/11 01:01:48;;;;;;;29.00;17.30;;;6.00;42.10;;;;;;5053290;28;20860;-85
2021/01/11 01:04:16;;;;;;;24.80;14.87;;;6.10;43.50;;;;;;5053602;28;20861;-85
2021/01/11 01:06:42;;;;;;;36.33;18.83;;;6.60;44.10;;;;;;5052804;28;20484;-85
2021/01/11 01:09:09;;;;;;;27.20;15.23;;;7.00;42.40;;;;;;5052946;28;20509;-85
2021/01/11 01:11:38;;;;;;;35.13;16.40;;;6.20;42.10;;;;;;5052972;28;20480;-85
2021/01/11 01:14:05;;;;;;;27.03;15.40;;;6.60;42.90;;;;;;5052962;28;20973;-85
2021/01/11 01:16:31;;;;;;;22.27;13.13;;;6.50;42.30;;;;;;5053122;28;20565;-85
2021/01/11 01:18:58;;;;;;;24.27;13.97;;;6.40;42.10;;;;;;5055801;28;20448;-85
2021/01/11 01:21:25;;;;;;;26.93;15.37;;;6.20;42.60;;;;;;5054390;28;21007;-85
2021/01/11 01:23:52;;;;;;;31.20;16.27;;;6.30;40.90;;;;;;5055585;28;20444;-85
2021/01/11 01:26:19;;;;;;;26.23;15.30;;;6.20;41.70;;;;;;5055867;28;20900;-85
2021/01/11 01:28:46;;;;;;;28.77;14.97;;;6.30;42.50;;;;;;5055858;28;20445;-84
2021/01/11 01:31:13;;;;;;;27.03;16.80;;;6.70;43.10;;;;;;5055905;28;20468;-85
2021/01/11 01:33:39;;;;;;;24.30;14.27;;;7.00;42.50;;;;;;5054922;28;20597;-85
2021/01/11 01:36:06;;;;;;;25.70;14.57;;;6.90;42.90;;;;;;5055953;28;20493;-85
2021/01/11 01:38:34;;;;;;;28.17;17.37;;;6.70;41.70;;;;;;5055920;28;20455;-86
2021/01/11 01:41:00;;;;;;;29.73;16.50;;;7.00;38.90;;;;;;5056257;28;20460;-86
2021/01/11 01:43:27;;;;;;;32.30;17.30;;;5.60;39.50;;;;;;5056721;28;20441;-85
2021/01/11 01:45:54;;;;;;;28.67;16.80;;;5.10;40.30;;;;;;5056005;28;20455;-85
2021/01/11 01:48:21;;;;;;;28.80;17.13;;;4.70;40.00;;;;;;5055685;28;20444;-85
2021/01/11 01:50:48;;;;;;;30.87;16.87;;;4.70;43.50;;;;;;5055936;28;20464;-85
2021/01/11 01:53:14;;;;;;;30.13;16.50;;;4.80;40.20;;;;;;5056540;28;20503;-85
2021/01/11 01:55:42;;;;;;;26.57;14.20;;;5.10;42.70;;;;;;5069848;28;20432;-84
2021/01/11 01:58:10;;;;;;;28.83;16.13;;;5.10;44.80;;;;;;5070056;28;20471;-85
2021/01/11 02:00:37;;;;;;;30.00;17.43;;;5.40;43.50;;;;;;5069932;28;20472;-85
2021/01/11 02:03:04;;;;;;;27.10;15.20;;;5.50;42.50;;;;;;5069561;28;20444;-84
2021/01/11 02:05:30;;;;;;;27.13;15.63;;;5.70;43.50;;;;;;5070777;28;20451;-85
2021/01/11 02:08:08;;;;;;;29.00;15.73;;;6.00;44.60;;;;;;5055832;28;20448;-85
2021/01/11 02:10:58;;;;;;;19.90;13.40;;;6.00;43.50;;;;;;5053131;28;20479;-86
2021/01/11 02:13:57;;;;;;;25.93;14.20;;;6.20;43.80;;;;;;5053938;28;20600;-85
2021/01/11 02:16:29;;;;;;;21.90;13.43;;;6.40;44.00;;;;;;5053396;28;20418;-85
2021/01/11 02:19:11;;;;;;;29.27;16.50;;;6.60;43.80;;;;;;5056428;28;20457;-85
2021/01/11 02:22:03;;;;;;;26.70;16.53;;;6.60;41.40;;;;;;5056905;28;20548;-86
2021/01/11 02:25:14;;;;;;;42.00;19.33;;;6.50;39.00;;;;;;5057414;28;20926;-86
2021/01/11 02:27:46;;;;;;;23.37;12.63;;;5.90;39.10;;;;;;5042014;28;20460;-86
2021/01/11 02:30:26;;;;;;;32.97;18.20;;;6.10;43.80;;;;;;5057324;28;20439;-86
2021/01/11 02:32:57;;;;;;;36.53;19.67;;;6.20;43.10;;;;;;5057462;28;20511;-86
2021/01/11 02:35:26;;;;;;;29.13;16.27;;;6.40;42.30;;;;;;5057004;28;20445;-86
2021/01/11 02:37:53;;;;;;;32.53;17.17;;;6.00;43.30;;;;;;5057033;28;20448;-85
2021/01/11 02:40:20;;;;;;;32.00;16.07;;;6.00;44.00;;;;;;5056930;28;20539;-86
2021/01/11 02:42:46;;;;;;;25.13;14.90;;;5.70;42.50;;;;;;5056855;28;20463;-86
2021/01/11 02:45:14;;;;;;;27.83;15.83;;;6.30;44.40;;;;;;5056358;28;20878;-86
2021/01/11 02:48:05;;;;;;;26.77;14.83;;;6.50;42.20;;;;;;5056559;28;20445;-86
2021/01/11 02:50:39;;;;;;;28.50;16.80;;;6.30;43.10;;;;;;5056258;28;20551;-86
2021/01/11 02:53:07;;;;;;;36.03;18.57;;;6.50;43.00;;;;;;5056797;28;20544;-85
2021/01/11 02:55:45;;;;;;;26.23;15.77;;;6.40;42.20;;;;;;5056274;28;20536;-85
2021/01/11 02:58:19;;;;;;;25.23;14.70;;;6.20;42.00;;;;;;5059168;28;20437;-86
2021/01/11 03:00:48;;;;;;;32.37;18.67;;;6.20;44.20;;;;;;5058227;28;20570;-86
2021/01/11 03:03:18;;;;;;;29.87;18.17;;;6.20;40.70;;;;;;5058555;28;20518;-86
2021/01/11 03:05:45;;;;;;;23.47;14.43;;;6.10;39.20;;;;;;5056128;28;20441;-86
2021/01/11 03:08:11;;;;;;;25.77;15.60;;;6.10;43.80;;;;;;5055990;28;20495;-85
2021/01/11 03:10:38;;;;;;;29.20;17.00;;;6.60;42.70;;;;;;5055797;28;20495;-86
2021/01/11 03:13:04;;;;;;;26.27;15.00;;;6.10;36.10;;;;;;5056128;28;20479;-86
2021/01/11 03:15:30;;;;;;;29.83;16.47;;;5.60;41.50;;;;;;5056194;28;20436;-86
2021/01/11 03:17:58;;;;;;;27.53;15.03;;;5.20;38.90;;;;;;5056192;28;20452;-85
2021/01/11 03:20:24;;;;;;;33.57;18.50;;;5.20;42.90;;;;;;5055947;28;20529;-86
2021/01/11 03:22:51;;;;;;;23.53;13.07;;;5.30;38.10;;;;;;5055483;28;20786;-86
2021/01/11 03:25:17;;;;;;;29.27;16.70;;;4.50;40.40;;;;;;5055879;28;20440;-86
2021/01/11 03:27:44;;;;;;;27.13;14.87;;;4.70;42.40;;;;;;5055851;28;20436;-86
2021/01/11 03:30:11;;;;;;;27.33;15.40;;;4.80;42.50;;;;;;5058521;28;20490;-86
2021/01/11 03:32:37;;;;;;;27.30;15.83;;;5.50;44.10;;;;;;5057550;28;20480;-86
2021/01/11 03:35:06;;;;;;;31.10;16.37;;;5.90;43.00;;;;;;5056345;28;20455;-86
2021/01/11 03:37:33;;;;;;;23.37;13.30;;;6.10;42.60;;;;;;5055774;28;20875;-86
2021/01/11 03:39:59;;;;;;;26.77;14.20;;;5.80;42.30;;;;;;5055965;28;20654;-86
2021/01/11 03:42:25;;;;;;;23.90;14.40;;;6.00;43.10;;;;;;5056019;28;20476;-86
2021/01/11 03:44:52;;;;;;;23.00;12.50;;;6.40;43.30;;;;;;5055780;28;20440;-86
2021/01/11 03:47:20;;;;;;;23.20;14.00;;;6.50;43.50;;;;;;5063908;28;20467;-86
2021/01/11 03:49:47;;;;;;;27.70;15.17;;;6.20;39.50;;;;;;5067302;28;20452;-86
2021/01/11 03:52:14;;;;;;;22.10;13.27;;;5.30;40.20;;;;;;5068203;28;20479;-85
2021/01/11 03:54:40;;;;;;;26.57;15.20;;;4.70;40.10;;;;;;5068813;28;20460;-86
2021/01/11 03:57:07;;;;;;;33.07;17.37;;;4.60;42.70;;;;;;5068723;28;20475;-86
2021/01/11 03:59:33;;;;;;;25.60;14.90;;;4.70;39.10;;;;;;5063493;28;20440;-86
2021/01/11 04:02:00;;;;;;;32.42;16.05;;;4.70;41.60;;;;;;5055564;28;20539;-86
2021/01/11 04:04:26;;;;;;;32.28;16.25;;;4.00;41.30;;;;;;5055586;28;20289;-86
2021/01/11 04:06:54;;;;;;;31.17;16.65;;;3.90;41.10;;;;;;5055741;28;20250;-86
2021/01/11 04:09:21;;;;;;;27.60;15.55;;;2.70;37.40;;;;;;5055466;28;20230;-85
2021/01/11 04:11:48;;;;;;;36.45;18.45;;;2.10;40.50;;;;;;5054997;28;20243;-85
2021/01/11 04:14:14;;;;;;;35.28;17.88;;;0.80;41.30;;;;;;5057027;28;20255;-85
2021/01/11 04:16:43;;;;;;;34.10;19.58;;;0.50;43.30;;;;;;5060824;28;20217;-85
2021/01/11 04:19:10;;;;;;;35.03;19.60;;;0.30;44.60;;;;;;5061112;28;20201;-85
2021/01/11 04:21:37;;;;;;;38.28;21.00;;;0.50;44.50;;;;;;5055986;28;20560;-85
2021/01/11 04:24:04;;;;;;;30.60;18.83;;;0.90;43.40;;;;;;5055470;28;20297;-85
2021/01/11 04:26:31;;;;;;;26.85;17.35;;;1.40;43.30;;;;;;5055239;28;20201;-85
2021/01/11 04:28:58;;;;;;;25.30;15.85;;;1.50;45.20;;;;;;5055174;28;20210;-85
2021/01/11 04:31:25;;;;;;;34.53;18.02;;;2.40;46.70;;;;;;5055076;28;20219;-86
2021/01/11 04:33:51;;;;;;;30.67;15.30;;;3.40;46.60;;;;;;5055296;28;20223;-86
2021/01/11 04:36:18;;;;;;;34.58;18.35;;;4.20;44.70;;;;;;5054650;28;20286;-86
2021/01/11 04:38:44;;;;;;;33.60;15.63;;;4.50;43.30;;;;;;5054910;28;20227;-86
2021/01/11 04:41:13;;;;;;;33.80;18.13;;;4.50;43.10;;;;;;5053873;28;20220;-86
2021/01/11 04:43:45;;;;;;;20.50;13.03;;;5.00;42.80;;;;;;5054664;28;20448;-86
2021/01/11 04:46:13;;;;;;;25.47;14.10;;;5.30;44.50;;;;;;5054523;28;20417;-86
2021/01/11 04:48:39;;;;;;;22.00;13.10;;;5.80;44.50;;;;;;5054350;28;20964;-86
2021/01/11 04:51:07;;;;;;;28.37;16.83;;;6.10;44.50;;;;;;5054191;28;20480;-86
2021/01/11 04:53:34;;;;;;;27.30;15.80;;;5.80;37.80;;;;;;5054710;28;20573;-86
2021/01/11 04:56:02;;;;;;;33.07;17.47;;;4.70;38.40;;;;;;5055141;28;20479;-86
2021/01/11 04:58:54;;;;;;;29.88;17.95;;;3.80;36.30;;;;;;5055577;28;20642;-86
2021/01/11 05:01:23;;;;;;;28.30;15.88;;;2.20;38.40;;;;;;5056329;28;20244;-85
2021/01/11 05:03:51;;;;;;;34.90;16.95;;;0.70;42.60;;;;;;5056385;28;20199;-85
2021/01/11 05:06:19;;;;;;;33.13;17.90;;;1.00;44.10;;;;;;5056953;28;20302;-86
2021/01/11 05:08:46;;;;;;;27.35;14.20;;;1.40;43.30;;;;;;5056958;28;20183;-85
2021/01/11 05:11:13;;;;;;;29.70;15.70;;;2.60;46.60;;;;;;5058862;28;20316;-85
2021/01/11 05:13:40;;;;;;;29.48;16.02;;;3.40;45.90;;;;;;5069498;28;20227;-85
2021/01/11 05:16:14;;;;;;;36.17;17.58;;;4.00;44.80;;;;;;5068482;28;20211;-86
2021/01/11 05:18:41;;;;;;;32.30;16.67;;;4.00;39.20;;;;;;5068696;28;20202;-85
2021/01/11 05:21:08;;;;;;;31.10;16.83;;;3.90;42.30;;;;;;5065223;28;20215;-86
2021/01/11 05:23:36;;;;;;;26.48;16.45;;;3.70;42.20;;;;;;5059504;28;20202;-86
2021/01/11 05:26:14;;;;;;;28.20;15.98;;;3.00;40.80;;;;;;5067380;28;20208;-85
2021/01/11 05:28:41;;;;;;;32.17;16.40;;;3.40;42.80;;;;;;5075341;28;20192;-86
2021/01/11 05:31:07;;;;;;;31.60;17.90;;;3.00;42.20;;;;;;5074497;28;20234;-86
2021/01/11 05:33:35;;;;;;;30.10;16.27;;;2.20;39.00;;;;;;5060444;28;20218;-85
2021/01/11 05:36:04;;;;;;;27.40;14.30;;;1.40;42.00;;;;;;5061016;28;20200;-85
2021/01/11 05:38:34;;;;;;;30.95;15.20;;;2.20;45.80;;;;;;5076305;28;20191;-85
2021/01/11 05:41:13;;;;;;;21.52;13.05;;;3.20;45.70;;;;;;5077060;28;20208;-86
2021/01/11 05:43:40;;;;;;;28.77;16.70;;;3.70;44.50;;;;;;5076458;28;20216;-86
2021/01/11 05:46:21;;;;;;;21.58;12.32;;;4.30;44.50;;;;;;5063432;28;20204;-86
2021/01/11 05:48:58;;;;;;;22.33;13.23;;;4.80;43.40;;;;;;5071728;28;20174;-86
2021/01/11 05:51:25;;;;;;;33.50;18.65;;;5.00;45.60;;;;;;5076765;28;20217;-85
2021/01/11 05:53:51;;;;;;;32.63;18.23;;;5.40;41.50;;;;;;5080051;28;20221;-85
2021/01/11 05:56:18;;;;;;;25.15;14.27;;;5.30;42.70;;;;;;5079874;28;20237;-85
2021/01/11 05:59:03;;;;;;;26.40;14.67;;;5.50;42.90;;;;;;5059274;28;20288;-86
2021/01/11 06:01:30;;;;;;;24.07;14.30;;;5.60;42.00;;;;;;5059267;28;20525;-86
2021/01/11 06:03:57;;;;;;;35.08;16.98;;;5.00;42.40;;;;;;5058516;28;20440;-86
2021/01/11 06:06:24;;;;;;;25.27;14.52;;;5.20;43.00;;;;;;5058185;28;20647;-87
2021/01/11 06:08:52;;;;;;;30.97;15.67;;;4.80;41.60;;;;;;5062464;28;20263;-87
2021/01/11 06:11:22;;;;;;;27.97;16.33;;;4.80;42.40;;;;;;5071569;28;20471;-87
2021/01/11 06:13:51;;;;;;;23.23;14.10;;;4.80;41.30;;;;;;5058102;28;20973;-87
2021/01/11 06:16:18;;;;;;;27.93;16.17;;;4.80;42.50;;;;;;5057614;28;20452;-87
2021/01/11 06:18:47;;;;;;;25.77;15.43;;;4.80;40.90;;;;;;5057401;28;20493;-87
2021/01/11 06:21:15;;;;;;;24.80;16.07;;;5.00;43.00;;;;;;5056941;28;20225;-87
2021/01/11 06:23:41;;;;;;;35.90;19.70;;;5.20;42.60;;;;;;5057101;28;20440;-87
2021/01/11 06:26:28;;;;;;;29.57;17.80;;;5.70;38.80;;;;;;5057970;28;20436;-88
2021/01/11 06:28:56;;;;;;;28.93;16.83;;;4.90;39.90;;;;;;5062588;28;20420;-86
2021/01/11 06:31:27;;;;;;;25.17;14.60;;;4.60;39.50;;;;;;5059212;28;20464;-87
2021/01/11 06:33:54;;;;;;;28.37;15.70;;;4.40;41.00;;;;;;5058186;28;20459;-87
2021/01/11 06:36:24;;;;;;;32.83;18.47;;;4.70;43.10;;;;;;5057947;28;20531;-87
2021/01/11 06:38:51;;;;;;;35.93;18.57;;;5.00;41.20;;;;;;5058539;28;20455;-87
2021/01/11 06:41:19;;;;;;;28.83;14.63;;;4.50;42.20;;;;;;5059088;28;20464;-87
2021/01/11 06:43:47;;;;;;;41.30;20.40;;;4.40;41.50;;;;;;5059635;28;20447;-87
2021/01/11 06:46:44;;;;;;;29.73;16.33;;;4.90;42.80;;;;;;5058613;28;20521;-87
2021/01/11 06:49:24;;;;;;;26.33;16.03;;;4.80;42.30;;;;;;5076757;28;20440;-87
2021/01/11 06:52:05;;;;;;;32.47;16.35;;;4.50;38.90;;;;;;5078363;28;20460;-86
2021/01/11 06:54:37;;;;;;;24.33;13.97;;;4.90;41.90;;;;;;5076186;28;20205;-86
2021/01/11 06:57:17;;;;;;;35.37;20.00;;;5.30;42.70;;;;;;5076779;28;20444;-86
2021/01/11 06:59:46;;;;;;;29.47;16.40;;;5.60;42.20;;;;;;5070342;28;20511;-86
2021/01/11 07:02:19;;;;;;;24.37;13.00;;;5.30;39.00;;;;;;5058280;28;20502;-86
2021/01/11 07:04:46;;;;;;;22.70;12.80;;;5.20;42.60;;;;;;5056570;28;20436;-86
2021/01/11 07:07:19;;;;;;;29.33;15.70;;;5.60;43.40;;;;;;5057066;28;20950;-87
2021/01/11 07:10:04;;;;;;;27.70;16.20;;;5.60;41.00;;;;;;5057147;28;20825;-87
2021/01/11 07:12:30;;;;;;;28.00;15.63;;;5.00;38.40;;;;;;5056573;28;20885;-86
2021/01/11 07:15:03;;;;;;;28.40;16.37;;;4.40;41.10;;;;;;5057126;28;20440;-86
2021/01/11 07:17:38;;;;;;;33.90;17.17;;;4.70;38.90;;;;;;5057032;28;20812;-86
2021/01/11 07:20:07;;;;;;;29.08;15.75;;;3.90;36.50;;;;;;5056587;28;20478;-86
2021/01/11 07:22:34;;;;;;;34.65;17.60;;;2.80;37.30;;;;;;5058748;28;20646;-86
2021/01/11 07:25:16;;;;;;;30.40;16.98;;;1.90;37.50;;;;;;5059396;28;20579;-86
2021/01/11 07:27:42;;;;;;;32.47;17.60;;;0.90;40.00;;;;;;5057735;28;20675;-86
2021/01/11 07:30:10;;;;;;;34.55;19.88;;;0.50;41.00;;;;;;5057229;28;20249;-86
2021/01/11 07:32:37;;;;;;;39.47;21.60;;;0.00;40.20;;;;;;5056336;28;20277;-86
2021/01/11 07:35:04;;;;;;;42.03;24.27;;;-0.70;39.50;;;;;;5065121;28;20205;-86
2021/01/11 07:37:31;;;;;;;49.63;26.52;;;-0.90;42.60;;;;;;5057189;28;20725;-86
2021/01/11 07:40:05;;;;;;;53.03;28.33;;;-0.70;44.90;;;;;;5057841;28;20595;-86
2021/01/11 07:42:32;;;;;;;45.92;25.75;;;-0.40;43.60;;;;;;5057927;28;20185;-86
2021/01/11 07:45:06;;;;;;;41.40;23.75;;;-0.10;45.30;;;;;;5057660;28;20382;-86
2021/01/11 07:47:33;;;;;;;39.22;22.83;;;0.50;42.50;;;;;;5058942;28;20200;-86
2021/01/11 07:50:00;;;;;;;41.55;22.33;;;0.70;42.70;;;;;;5059861;28;20204;-86
2021/01/11 07:52:28;;;;;;;44.67;24.00;;;0.50;40.10;;;;;;5058586;28;20305;-86
2021/01/11 07:54:59;;;;;;;36.78;21.27;;;0.40;38.80;;;;;;5058491;28;20229;-86
2021/01/11 07:57:27;;;;;;;38.72;22.95;;;0.20;38.80;;;;;;5057191;28;20197;-87
2021/01/11 08:00:01;;;;;;;39.72;23.42;;;0.00;42.10;;;;;;5057406;28;20302;-86
2021/01/11 08:02:29;;;;;;;37.08;22.27;;;-0.80;40.20;;;;;;5056938;28;20211;-86
2021/01/11 08:04:55;;;;;;;44.85;26.35;;;-1.00;41.30;;;;;;5056786;28;20205;-86
2021/01/11 08:07:28;;;;;;;37.35;23.15;;;-0.60;42.90;;;;;;5056538;28;20206;-86
2021/01/11 08:09:58;;;;;;;46.15;24.98;;;-0.70;43.60;;;;;;5057206;28;20313;-86
2021/01/11 08:12:26;;;;;;;47.15;26.77;;;-1.00;43.20;;;;;;5056431;28;20292;-86
2021/01/11 08:15:00;;;;;;;43.53;26.38;;;-1.30;41.60;;;;;;5055962;28;20201;-87
2021/01/11 08:17:27;;;;;;;49.05;26.27;;;-1.30;46.70;;;;;;5056169;28;20181;-87
2021/01/11 08:19:55;;;;;;;46.22;24.13;;;-1.40;42.00;;;;;;5056537;28;20268;-86
2021/01/11 08:22:22;;;;;;;43.28;25.80;;;-1.30;43.10;;;;;;5056841;28;20302;-86
2021/01/11 08:24:50;;;;;;;47.58;25.08;;;-1.20;43.70;;;;;;5056375;28;20213;-86
2021/01/11 08:27:23;;;;;;;43.20;25.20;;;-1.20;43.10;;;;;;5057352;28;20236;-86
2021/01/11 08:29:50;;;;;;;38.97;22.95;;;-1.20;41.10;;;;;;5056896;28;20216;-86
2021/01/11 08:32:18;;;;;;;43.70;23.92;;;-0.50;45.60;;;;;;5069740;28;20331;-86
2021/01/11 08:34:46;;;;;;;44.25;25.58;;;-0.20;45.90;;;;;;5071710;28;20331;-86
2021/01/11 08:37:31;;;;;;;44.10;24.33;;;0.00;42.10;;;;;;5070525;28;20213;-86
2021/01/11 08:39:58;;;;;;;41.28;23.38;;;0.50;42.50;;;;;;5073874;28;20199;-86
2021/01/11 08:42:27;;;;;;;49.92;23.63;;;0.70;44.00;;;;;;5072404;28;20228;-86
2021/01/11 08:44:53;;;;;;;46.47;24.08;;;1.10;43.60;;;;;;5064297;28;20207;-86
2021/01/11 08:47:26;;;;;;;42.47;23.50;;;1.10;41.00;;;;;;5056344;28;20206;-86
2021/01/11 08:49:59;;;;;;;48.97;22.98;;;0.70;42.60;;;;;;5064394;28;20224;-86
2021/01/11 08:52:31;;;;;;;41.40;23.70;;;0.70;42.60;;;;;;5073597;28;20218;-86
2021/01/11 08:55:08;;;;;;;45.45;25.15;;;0.90;43.10;;;;;;5074788;28;20221;-86
2021/01/11 08:57:35;;;;;;;47.17;26.35;;;0.60;43.30;;;;;;5075078;28;20174;-85
2021/01/11 09:00:08;;;;;;;43.78;24.30;;;1.30;43.80;;;;;;5071458;28;20204;-86
2021/01/11 09:02:35;;;;;;;37.30;22.08;;;1.70;40.20;;;;;;5056962;28;20222;-86
2021/01/11 09:05:16;;;;;;;45.50;24.13;;;2.20;45.20;;;;;;5058302;28;20204;-87
2021/01/11 09:07:43;;;;;;;45.90;23.70;;;2.70;44.30;;;;;;5058018;28;20229;-87
2021/01/11 09:10:24;;;;;;;39.67;20.80;;;2.80;43.50;;;;;;5057932;28;20634;-87
2021/01/11 09:12:52;;;;;;;40.38;22.08;;;3.20;45.70;;;;;;5057449;28;20237;-87
2021/01/11 09:15:26;;;;;;;34.70;18.50;;;3.30;39.30;;;;;;5057291;28;20204;-87
2021/01/11 09:18:03;;;;;;;43.45;23.92;;;3.20;44.80;;;;;;5055504;28;20623;-86
2021/01/11 09:20:30;;;;;;;39.30;21.45;;;3.20;41.30;;;;;;5055328;28;20708;-86
2021/01/11 09:22:57;;;;;;;34.55;19.80;;;3.30;42.10;;;;;;5054527;28;20658;-86
2021/01/11 09:25:24;;;;;;;45.53;21.13;;;3.60;43.90;;;;;;5057385;28;20261;-86
2021/01/11 09:27:51;;;;;;;39.85;21.13;;;3.20;41.30;;;;;;5060758;28;20224;-86
2021/01/11 09:30:18;;;;;;;42.45;22.55;;;3.50;42.50;;;;;;5061536;28;20215;-86
2021/01/11 09:32:46;;;;;;;39.17;18.08;;;3.20;39.70;;;;;;5059790;28;20357;-86
2021/01/11 09:35:13;;;;;;;40.03;20.35;;;3.10;45.20;;;;;;5057930;28;20197;-86
2021/01/11 09:37:40;;;;;;;39.97;20.50;;;3.50;44.30;;;;;;5058669;28;20197;-86
2021/01/11 09:40:07;;;;;;;44.23;20.83;;;3.60;42.80;;;;;;5058245;28;20502;-86
2021/01/11 09:42:34;;;;;;;43.63;22.23;;;3.90;41.50;;;;;;5058887;28;20446;-85
2021/01/11 09:45:01;;;;;;;43.07;22.50;;;4.20;41.50;;;;;;5057966;28;20497;-86
2021/01/11 09:47:28;;;;;;;55.50;22.07;;;4.40;41.70;;;;;;5058794;28;20444;-86
2021/01/11 09:49:54;;;;;;;38.97;19.07;;;4.10;40.30;;;;;;5058183;28;20451;-86
2021/01/11 09:52:22;;;;;;;43.03;23.35;;;3.90;38.60;;;;;;5057999;28;20514;-86
2021/01/11 09:54:49;;;;;;;38.63;20.00;;;3.30;39.50;;;;;;5057917;28;20229;-86
2021/01/11 09:57:15;;;;;;;42.78;21.08;;;3.30;40.50;;;;;;5057879;28;20208;-86
2021/01/11 09:59:42;;;;;;;41.15;21.02;;;2.80;42.00;;;;;;5057796;28;20212;-86
2021/01/11 10:02:10;;;;;;;36.70;20.00;;;2.60;42.50;;;;;;5057953;28;20220;-87
2021/01/11 10:04:37;;;;;;;40.92;21.60;;;2.70;41.70;;;;;;5058157;28;20200;-86
2021/01/11 10:07:03;;;;;;;39.20;21.35;;;2.50;40.50;;;;;;5057609;28;20208;-86
2021/01/11 10:09:30;;;;;;;80.45;28.80;;;2.50;39.60;;;;;;5059085;28;20561;-87
2021/01/11 10:11:59;;;;;;;56.17;23.75;;;2.50;41.20;;;;;;5059867;28;20227;-87
2021/01/11 10:14:27;;;;;;;38.50;20.45;;;2.70;40.90;;;;;;5059751;28;20208;-86
2021/01/11 10:16:53;;;;;;;42.65;20.80;;;3.20;46.00;;;;;;5060084;28;20208;-86
2021/01/11 10:19:23;;;;;;;34.85;19.50;;;3.30;42.20;;;;;;5059478;28;20281;-86
2021/01/11 10:21:50;;;;;;;43.33;20.20;;;3.60;42.90;;;;;;5060007;28;20362;-87
2021/01/11 10:24:18;;;;;;;40.17;20.55;;;4.10;43.50;;;;;;5061210;28;20233;-86
2021/01/11 10:26:45;;;;;;;34.08;17.70;;;4.70;45.10;;;;;;5065026;28;20251;-86
2021/01/11 10:29:12;;;;;;;33.07;16.57;;;5.00;43.90;;;;;;5063340;28;20292;-86
2021/01/11 10:31:39;;;;;;;32.20;16.10;;;5.60;43.40;;;;;;5061706;28;20460;-86
2021/01/11 10:34:06;;;;;;;26.70;15.70;;;6.30;40.40;;;;;;5061705;28;20883;-86
2021/01/11 10:36:41;;;;;;;46.73;15.97;;;6.70;41.10;;;;;;5061330;28;20462;-86
2021/01/11 10:39:08;;;;;;;29.83;15.20;;;7.10;41.10;;;;;;5062443;28;20882;-86
2021/01/11 10:41:35;;;;;;;36.20;14.57;;;6.50;33.50;;;;;;5063323;28;20472;-86
2021/01/11 10:44:01;;;;;;;27.83;13.87;;;5.70;40.50;;;;;;5061113;28;20440;-86
2021/01/11 10:46:28;;;;;;;30.03;16.20;;;5.70;41.00;;;;;;5062226;28;20933;-86
2021/01/11 10:48:54;;;;;;;32.87;16.33;;;5.30;42.10;;;;;;5079675;28;20448;-86
2021/01/11 10:51:23;;;;;;;33.27;18.13;;;5.10;39.30;;;;;;5079956;28;20456;-86
2021/01/11 10:53:51;;;;;;;27.07;16.63;;;4.50;38.90;;;;;;5077027;28;20483;-86
2021/01/11 10:56:20;;;;;;;25.60;14.00;;;4.90;43.90;;;;;;5080006;28;20472;-86
2021/01/11 10:58:46;;;;;;;30.87;18.07;;;5.60;43.60;;;;;;5079283;28;20477;-86
2021/01/11 11:01:14;;;;;;;28.80;13.93;;;5.90;36.10;;;;;;5078878;28;20488;-86
2021/01/11 11:03:41;;;;;;;28.67;15.03;;;6.50;42.80;;;;;;5079911;28;20438;-86
2021/01/11 11:06:07;;;;;;;32.60;18.93;;;6.90;39.90;;;;;;5078651;28;20451;-86
2021/01/11 11:08:34;;;;;;;28.30;16.00;;;6.70;40.60;;;;;;5075012;28;20434;-87
2021/01/11 11:11:02;;;;;;;30.83;17.33;;;7.20;42.40;;;;;;5073405;28;20835;-87
2021/01/11 11:13:30;;;;;;;26.07;15.80;;;6.90;36.00;;;;;;5065206;28;20880;-87
2021/01/11 11:15:57;;;;;;;31.23;16.47;;;6.80;40.80;;;;;;5058200;28;20441;-87
2021/01/11 11:18:23;;;;;;;33.90;17.10;;;6.90;41.40;;;;;;5059849;28;20454;-87
2021/01/11 11:20:50;;;;;;;31.20;15.00;;;7.00;39.40;;;;;;5057819;28;20514;-87
2021/01/11 11:23:17;;;;;;;30.53;16.40;;;7.00;40.60;;;;;;5056978;28;20546;-87
2021/01/11 11:25:44;;;;;;;29.93;16.30;;;7.10;40.50;;;;;;5058247;28;20462;-87
2021/01/11 11:28:12;;;;;;;32.20;17.70;;;7.30;40.60;;;;;;5058969;28;20455;-87
2021/01/11 11:30:38;;;;;;;28.30;16.50;;;7.50;39.70;;;;;;5057629;28;21021;-86
2021/01/11 11:33:05;;;;;;;26.00;13.80;;;7.50;39.00;;;;;;5056486;28;20498;-86
2021/01/11 11:35:31;;;;;;;24.80;14.23;;;7.60;38.90;;;;;;5057585;28;20836;-86
2021/01/11 11:37:58;;;;;;;37.20;19.20;;;6.80;38.50;;;;;;5060719;28;20486;-86
2021/01/11 11:40:25;;;;;;;29.73;17.33;;;6.30;35.70;;;;;;5059187;28;20849;-87
2021/01/11 11:42:51;;;;;;;36.90;17.67;;;6.00;35.20;;;;;;5056271;28;20441;-86
2021/01/11 11:45:19;;;;;;;29.43;17.40;;;5.90;35.40;;;;;;5057515;28;20516;-86
2021/01/11 11:47:45;;;;;;;33.77;17.00;;;6.00;36.70;;;;;;5059246;28;20444;-89
2021/01/11 11:50:14;;;;;;;35.43;19.13;;;6.10;40.10;;;;;;5057411;28;20826;-88
2021/01/11 11:52:41;;;;;;;33.77;17.43;;;6.40;34.80;;;;;;5067954;28;20461;-87
2021/01/11 11:55:10;;;;;;;33.10;16.87;;;6.60;37.20;;;;;;5078418;28;20480;-87
2021/01/11 11:57:39;;;;;;;39.07;19.60;;;6.50;37.50;;;;;;5078106;28;20443;-87
2021/01/11 12:00:07;;;;;;;35.90;19.33;;;6.60;36.00;;;;;;5087195;22;20488;-85
2021/01/11 12:02:34;;;;;;;37.10;16.87;;;6.60;38.20;;;;;;5075704;28;20541;-85
2021/01/11 12:05:01;;;;;;;36.60;16.90;;;6.60;37.60;;;;;;5075256;28;20445;-85
2021/01/11 12:07:28;;;;;;;40.20;20.87;;;6.50;37.50;;;;;;5074917;28;20480;-85
2021/01/11 12:09:54;;;;;;;37.10;17.90;;;6.50;36.70;;;;;;5075528;28;20557;-86
2021/01/11 12:12:21;;;;;;;30.40;17.67;;;6.20;36.20;;;;;;5074847;28;20781;-86
2021/01/11 12:14:48;;;;;;;33.47;18.47;;;6.10;35.00;;;;;;5074753;28;20559;-85
2021/01/11 12:17:14;;;;;;;30.63;16.77;;;5.90;35.50;;;;;;5075441;28;20452;-86
2021/01/11 12:19:42;;;;;;;30.67;17.03;;;5.90;37.70;;;;;;5074840;28;20462;-86
2021/01/11 12:22:10;;;;;;;32.27;17.60;;;5.90;38.60;;;;;;5077099;28;20515;-86
2021/01/11 12:24:37;;;;;;;38.70;19.00;;;6.20;38.60;;;;;;5077396;28;20456;-86
2021/01/11 12:27:04;;;;;;;35.13;19.67;;;6.40;36.70;;;;;;5075813;28;20462;-86
2021/01/11 12:29:31;;;;;;;31.97;16.60;;;6.00;34.00;;;;;;5074747;28;21056;-87
2021/01/11 12:31:57;;;;;;;28.80;15.60;;;6.10;38.50;;;;;;5075739;28;20429;-86
2021/01/11 12:34:24;;;;;;;32.60;17.63;;;6.20;38.20;;;;;;5080683;28;20470;-86
2021/01/11 12:36:52;;;;;;;34.13;17.03;;;6.10;34.50;;;;;;5082460;28;20495;-86
2021/01/11 12:39:19;;;;;;;35.10;17.90;;;5.90;34.80;;;;;;5081659;28;20476;-86
2021/01/11 12:41:47;;;;;;;35.90;16.80;;;5.70;33.80;;;;;;5082272;28;20485;-86
2021/01/11 12:44:13;;;;;;;32.27;17.17;;;5.80;36.60;;;;;;5080673;28;20484;-86